Airfield :
LOGIN :

Register | Disclaimer

   EN    FR    IT 

 










Legend :    VFR   Marginal VFR   IFR   Intensive IFR   Very Intensive IFR
Visi :
Ceiling :
>= 8 km
>= 3000ft
5 to 8 km
1000 to 3000 ft
1500m to 5 km
500 to 1000 ft
800 to 1500m
200 to 500 ft
< 800m
< 200 ft
Symbols :   Thunderstorms  Fog  Heavy snow  Heavy precipitations  Wind > 20 kt
SIGMETs :     Misc.  Thunderstorms  Icing  Turbulence  Mountain Waves  Volcanic Ashes






- Airport Elevation : 18 ft
- IATA code : AJA


LFKJ - Ajaccio

CURRENT METAR :
  • 230200Z AUTO 11010KT 070V140 9999 FEW074 OVC090 18/09 Q1003 TEMPO 11015G25KT

EXPIRED METARs :
  • 230130Z AUTO 11010KT 060V140 9999 OVC082 18/09 Q1003
  • 230100Z AUTO 09007KT 060V130 9999 OVC082 17/08 Q1003 TEMPO 11015G25KT
  • 230030Z AUTO 09008KT 060V140 9999 BKN082 OVC100 17/09 Q1004 TEMPO 11015G25KT
  • 230000Z AUTO 09009KT 060V120 9999 OVC084 17/09 Q1004 TEMPO 11015G25KT
  • 222330Z AUTO 09009KT 060V130 9999 OVC092 17/09 Q1005 TEMPO 11015G25KT

TAF TAF LFKJ
Valid from the 22 at 21:00 until the 23 at 21:00 UTC


222000Z 2221/2321 07010KT 9999 FEW050 OVC090
TEMPO 2300/2304 11015G25KT
TEMPO 2304/2321 SHRA SCT025 FEW040CB OVC060
ATIS : +33 4 95 23 59 85



MET'MAP, your aeronautical weather chart ! - Copyright ORBIFLY December 2007 - Disclaimer

ORBIFLY MET'MAP TEAM :

Programming & Development : Alexandra Zaïnal
Concept & Development : Baudouin d'Aumeries
Co-Development & Prog : Marc-Olivier Méhu
Technical & hardware support : Manuel Goepfert

Contact : metmap@orbifly.com




SOURCES & CREDITS :

   NOAA